Time;durP1;ratioP1;P1;durP2;ratioP2;P2;SDS_P1;SDS_P2;PMS_P1;PMS_P2;Temp;Humidity;BMP_temperature;BMP_pressure;BME280_temperature;BME280_humidity;BME280_pressure;Samples;Min_cycle;Max_cycle;Signal;HPM_P1;HPM_P2
2022/12/31 00:01:25;;;;;;;1.73;0.70;;;12.40;99.90;;;;;;4968416;28;20470;-72
2022/12/31 00:03:52;;;;;;;1.00;0.80;;;12.40;99.90;;;;;;4968354;28;20546;-73
2022/12/31 00:06:22;;;;;;;0.90;0.70;;;12.70;99.90;;;;;;4967624;28;20458;-72
2022/12/31 00:08:50;;;;;;;1.00;0.70;;;12.60;99.90;;;;;;4968181;28;20483;-72
2022/12/31 00:11:18;;;;;;;0.77;0.67;;;12.60;99.90;;;;;;4968175;28;20474;-72
2022/12/31 00:13:46;;;;;;;0.90;0.70;;;12.60;99.90;;;;;;4968859;28;20454;-73
2022/12/31 00:16:15;;;;;;;1.50;1.10;;;12.50;99.90;;;;;;4968038;28;20451;-72
2022/12/31 00:18:45;;;;;;;0.97;0.80;;;12.70;99.90;;;;;;4968544;28;20513;-72
2022/12/31 00:21:13;;;;;;;1.10;0.80;;;12.80;99.90;;;;;;4962173;28;20545;-73
2022/12/31 00:23:40;;;;;;;1.33;0.70;;;12.70;99.90;;;;;;4967775;28;20497;-73
2022/12/31 00:26:10;;;;;;;0.80;0.70;;;12.70;99.90;;;;;;4970242;28;20462;-74
2022/12/31 00:28:38;;;;;;;0.97;0.60;;;13.10;99.90;;;;;;4967766;28;20427;-73
2022/12/31 00:31:11;;;;;;;1.03;0.87;;;13.10;99.90;;;;;;4969270;28;20500;-72
2022/12/31 00:33:39;;;;;;;0.90;0.70;;;12.90;99.90;;;;;;4967427;28;21181;-74
2022/12/31 00:36:11;;;;;;;0.77;0.63;;;12.80;99.90;;;;;;4969329;28;20705;-73
2022/12/31 00:38:40;;;;;;;0.90;0.80;;;12.80;99.90;;;;;;4965856;28;20553;-72
2022/12/31 00:41:09;;;;;;;1.10;0.70;;;12.70;99.90;;;;;;4970412;28;20538;-73
2022/12/31 00:43:38;;;;;;;1.07;0.90;;;13.00;99.90;;;;;;4969268;28;20541;-73
2022/12/31 00:46:17;;;;;;;1.07;0.70;;;12.90;99.90;;;;;;4970325;28;20458;-73
2022/12/31 00:48:54;;;;;;;0.80;0.70;;;12.90;99.90;;;;;;4972254;28;20946;-73
2022/12/31 00:51:37;;;;;;;0.90;0.70;;;13.20;99.90;;;;;;4972005;28;20450;-73
2022/12/31 00:54:07;;;;;;;0.90;0.80;;;13.20;99.90;;;;;;4972050;28;20450;-72
2022/12/31 00:56:34;;;;;;;0.70;0.60;;;13.20;99.90;;;;;;4967451;28;20561;-73
2022/12/31 00:59:03;;;;;;;0.80;0.70;;;13.20;99.90;;;;;;4969056;28;20470;-73
2022/12/31 01:01:40;;;;;;;1.43;1.00;;;13.30;99.90;;;;;;4952347;28;20461;-73
2022/12/31 01:04:09;;;;;;;1.63;0.80;;;13.40;99.90;;;;;;4969835;28;20462;-74
2022/12/31 01:06:42;;;;;;;0.87;0.80;;;13.20;99.90;;;;;;4972102;28;20454;-73
2022/12/31 01:09:12;;;;;;;0.90;0.77;;;13.20;99.90;;;;;;4954417;28;20458;-73
2022/12/31 01:11:41;;;;;;;1.00;0.70;;;13.30;99.90;;;;;;4955150;28;20471;-73
2022/12/31 01:14:11;;;;;;;0.90;0.70;;;13.20;99.90;;;;;;4973851;28;20470;-73
2022/12/31 01:16:46;;;;;;;0.90;0.67;;;13.10;99.90;;;;;;4975208;28;20456;-73
2022/12/31 01:19:17;;;;;;;0.80;0.67;;;13.30;99.90;;;;;;4973387;28;20489;-73
2022/12/31 01:21:48;;;;;;;0.70;0.60;;;13.30;99.90;;;;;;4955237;28;20493;-72
2022/12/31 01:24:16;;;;;;;0.90;0.70;;;13.20;99.90;;;;;;4985642;28;20434;-73
2022/12/31 01:26:45;;;;;;;0.80;0.70;;;13.30;99.90;;;;;;4972923;28;20516;-74
2022/12/31 01:29:13;;;;;;;0.80;0.70;;;13.50;99.90;;;;;;4972270;28;20973;-73
2022/12/31 01:31:41;;;;;;;1.77;0.80;;;13.50;99.90;;;;;;4971268;28;20460;-73
2022/12/31 01:34:10;;;;;;;1.00;0.80;;;13.40;99.90;;;;;;4972469;28;20475;-73
2022/12/31 01:36:48;;;;;;;0.80;0.70;;;13.40;99.90;;;;;;4971441;28;20537;-73
2022/12/31 01:39:17;;;;;;;1.13;0.97;;;13.30;99.90;;;;;;4954639;28;20994;-73
2022/12/31 01:41:55;;;;;;;1.00;0.70;;;13.30;99.90;;;;;;4971442;28;20807;-73
2022/12/31 01:44:52;;;;;;;0.80;0.70;;;13.30;99.90;;;;;;4972129;28;20491;-73
2022/12/31 01:47:39;;;;;;;1.00;0.67;;;13.30;99.90;;;;;;4970199;28;20577;-74
2022/12/31 01:50:13;;;;;;;1.00;0.90;;;13.40;99.90;;;;;;4972033;28;20883;-73
2022/12/31 01:52:48;;;;;;;0.90;0.70;;;13.60;99.90;;;;;;4971644;28;20465;-73
2022/12/31 01:55:27;;;;;;;2.50;0.80;;;13.50;99.90;;;;;;4971505;28;20708;-72
2022/12/31 01:58:01;;;;;;;0.80;0.70;;;13.50;99.90;;;;;;4971943;28;20736;-73
2022/12/31 02:00:32;;;;;;;0.80;0.67;;;13.50;99.90;;;;;;4971993;28;20461;-72
2022/12/31 02:02:59;;;;;;;0.80;0.70;;;13.40;99.90;;;;;;4969933;28;20497;-73
2022/12/31 02:05:32;;;;;;;0.87;0.73;;;13.50;99.90;;;;;;4972412;28;20462;-73
2022/12/31 02:08:03;;;;;;;0.80;0.70;;;13.50;99.90;;;;;;4990526;28;20885;-73
2022/12/31 02:10:35;;;;;;;0.90;0.70;;;13.40;99.90;;;;;;4991225;28;20472;-72
2022/12/31 02:13:08;;;;;;;0.90;0.70;;;13.30;99.90;;;;;;4990843;28;20504;-73
2022/12/31 02:15:49;;;;;;;0.97;0.70;;;13.40;99.90;;;;;;4973154;28;20445;-73
2022/12/31 02:18:32;;;;;;;0.70;0.60;;;13.40;99.90;;;;;;4980463;28;20564;-73
2022/12/31 02:21:48;;;;;;;1.20;0.70;;;13.30;99.90;;;;;;4970822;28;20450;-73
2022/12/31 02:24:42;;;;;;;0.80;0.60;;;13.50;99.90;;;;;;4933124;29;20468;-73
2022/12/31 02:27:20;;;;;;;0.80;0.67;;;13.50;99.90;;;;;;4932493;29;20484;-73
2022/12/31 02:30:14;;;;;;;0.90;0.63;;;13.50;99.90;;;;;;4913750;29;20978;-73
2022/12/31 02:32:57;;;;;;;1.00;0.80;;;13.50;99.90;;;;;;4913253;29;20991;-73
2022/12/31 02:35:29;;;;;;;0.70;0.60;;;13.50;99.90;;;;;;4913436;29;20823;-73
2022/12/31 02:38:02;;;;;;;0.80;0.70;;;13.50;99.90;;;;;;4913489;29;20445;-73
2022/12/31 02:40:42;;;;;;;1.00;0.80;;;13.60;99.90;;;;;;4913553;29;20485;-73
2022/12/31 02:46:07;;;;;;;0.80;0.70;;;13.50;99.90;;;;;;4917302;29;20472;-73
2022/12/31 02:48:44;;;;;;;0.70;0.60;;;13.50;99.90;;;;;;4932264;29;20455;-74
2022/12/31 02:51:24;;;;;;;0.73;0.60;;;13.50;99.90;;;;;;4932082;29;20470;-73
2022/12/31 02:54:07;;;;;;;0.70;0.70;;;13.60;99.90;;;;;;4932072;29;20447;-73
2022/12/31 02:56:39;;;;;;;1.33;0.63;;;13.50;99.90;;;;;;4932377;29;20887;-73
2022/12/31 03:02:14;;;;;;;1.40;0.63;;;13.60;99.90;;;;;;4931164;29;20579;-72
2022/12/31 03:04:43;;;;;;;1.00;0.90;;;13.60;99.90;;;;;;4931716;29;20789;-72
2022/12/31 03:07:13;;;;;;;1.00;0.60;;;13.70;99.90;;;;;;4931879;29;20455;-73
2022/12/31 03:09:40;;;;;;;1.30;0.77;;;13.70;99.90;;;;;;4931733;29;20555;-72
2022/12/31 03:14:55;;;;;;;0.93;0.67;;;13.80;99.90;;;;;;4930678;29;20858;-73
2022/12/31 03:17:25;;;;;;;0.83;0.70;;;13.70;99.90;;;;;;4930361;29;20640;-73
2022/12/31 03:22:39;;;;;;;0.90;0.70;;;13.70;99.90;;;;;;4956315;28;20493;-73
2022/12/31 03:27:54;;;;;;;0.80;0.67;;;13.90;99.90;;;;;;4969993;28;20446;-73
2022/12/31 03:30:22;;;;;;;0.90;0.70;;;14.00;99.90;;;;;;4969989;28;20450;-73
2022/12/31 03:32:51;;;;;;;1.30;1.20;;;14.10;99.90;;;;;;4969997;28;20466;-73
2022/12/31 03:35:20;;;;;;;0.70;0.60;;;14.00;99.90;;;;;;4969044;28;20476;-73
2022/12/31 03:37:47;;;;;;;0.80;0.70;;;14.10;99.90;;;;;;4970176;28;20458;-73
2022/12/31 03:40:15;;;;;;;0.90;0.70;;;14.10;99.90;;;;;;4970434;28;20452;-73
2022/12/31 03:42:42;;;;;;;0.83;0.67;;;14.10;99.90;;;;;;4969819;28;20494;-73
2022/12/31 03:45:11;;;;;;;0.80;0.70;;;14.10;99.90;;;;;;4970391;28;20458;-73
2022/12/31 03:47:38;;;;;;;1.00;0.90;;;14.10;99.90;;;;;;4975013;28;21013;-72
2022/12/31 03:50:08;;;;;;;0.90;0.70;;;14.30;99.90;;;;;;4973766;28;20460;-73
2022/12/31 03:52:35;;;;;;;0.80;0.70;;;14.20;99.90;;;;;;4973160;28;20961;-73
2022/12/31 03:55:03;;;;;;;1.00;0.63;;;14.20;99.90;;;;;;4973925;28;20459;-74
2022/12/31 03:57:30;;;;;;;0.73;0.60;;;14.20;99.90;;;;;;4971358;28;20489;-73
2022/12/31 03:59:57;;;;;;;0.80;0.70;;;14.20;99.90;;;;;;4969706;28;20529;-73
2022/12/31 04:02:24;;;;;;;0.80;0.70;;;14.20;99.90;;;;;;4969325;28;20457;-73
2022/12/31 04:04:51;;;;;;;0.80;0.70;;;14.30;99.90;;;;;;4969530;28;20516;-73
2022/12/31 04:07:19;;;;;;;0.90;0.70;;;14.30;99.90;;;;;;4969699;28;20454;-73
2022/12/31 04:09:46;;;;;;;0.90;0.70;;;14.40;99.90;;;;;;4967716;28;20485;-73
2022/12/31 04:12:13;;;;;;;2.20;0.80;;;14.40;99.90;;;;;;4969304;28;20751;-73
2022/12/31 04:14:40;;;;;;;0.80;0.70;;;14.40;99.90;;;;;;4969793;28;20916;-73
2022/12/31 04:17:07;;;;;;;1.00;0.87;;;14.40;99.90;;;;;;4969117;28;20469;-72
2022/12/31 04:19:34;;;;;;;0.80;0.60;;;14.40;99.90;;;;;;4969513;28;20458;-73
2022/12/31 04:22:01;;;;;;;1.00;0.70;;;14.30;99.90;;;;;;4968943;28;20505;-73
2022/12/31 04:24:30;;;;;;;0.80;0.60;;;14.50;99.90;;;;;;4968927;28;20485;-73
2022/12/31 04:26:58;;;;;;;0.80;0.70;;;14.60;99.90;;;;;;4967938;28;20466;-73
2022/12/31 04:29:25;;;;;;;0.70;0.60;;;14.50;99.90;;;;;;4969001;28;20465;-73
2022/12/31 04:31:52;;;;;;;0.80;0.60;;;14.60;99.90;;;;;;4969262;28;20462;-73
2022/12/31 04:34:25;;;;;;;0.80;0.63;;;14.60;99.90;;;;;;4976771;28;20450;-72
2022/12/31 04:36:52;;;;;;;0.70;0.60;;;14.60;99.90;;;;;;4988472;28;20524;-73
2022/12/31 04:39:19;;;;;;;1.00;0.80;;;14.50;99.90;;;;;;4988475;28;20455;-73
2022/12/31 04:41:47;;;;;;;1.30;0.70;;;14.50;99.90;;;;;;4981492;28;20469;-73
2022/12/31 04:44:14;;;;;;;1.10;0.63;;;14.50;99.90;;;;;;4968918;28;20856;-73
2022/12/31 04:46:41;;;;;;;0.90;0.80;;;14.50;99.90;;;;;;4969187;28;20465;-73
2022/12/31 04:49:08;;;;;;;0.80;0.60;;;14.50;99.90;;;;;;4968720;28;20454;-73
2022/12/31 04:51:38;;;;;;;0.80;0.70;;;14.60;99.90;;;;;;4969101;28;20885;-73
2022/12/31 04:54:05;;;;;;;1.10;0.70;;;14.60;99.90;;;;;;4968951;28;20451;-73
2022/12/31 04:56:35;;;;;;;0.80;0.70;;;14.70;99.90;;;;;;4968856;28;20456;-73
2022/12/31 04:59:03;;;;;;;1.10;0.73;;;14.60;99.90;;;;;;4967777;28;20465;-73
2022/12/31 05:01:30;;;;;;;0.70;0.60;;;14.60;99.90;;;;;;4969022;28;20461;-72
2022/12/31 05:03:57;;;;;;;0.83;0.70;;;14.70;99.90;;;;;;4972476;28;20496;-73
2022/12/31 05:06:24;;;;;;;0.70;0.60;;;14.60;99.90;;;;;;4972530;28;20513;-72
2022/12/31 05:08:51;;;;;;;1.50;0.73;;;14.70;99.90;;;;;;4972510;28;20915;-73
2022/12/31 05:11:18;;;;;;;1.67;0.70;;;14.60;99.90;;;;;;4972444;28;20456;-73
2022/12/31 05:13:45;;;;;;;0.80;0.70;;;14.60;99.90;;;;;;4972263;28;20457;-73
2022/12/31 05:16:13;;;;;;;0.80;0.70;;;14.60;99.90;;;;;;4971252;28;20474;-72
2022/12/31 05:18:40;;;;;;;0.70;0.60;;;14.60;99.90;;;;;;4972265;28;20910;-72
2022/12/31 05:21:07;;;;;;;0.80;0.70;;;14.60;99.90;;;;;;4971876;28;20476;-72
2022/12/31 05:23:34;;;;;;;0.80;0.67;;;14.60;99.90;;;;;;4972347;28;20486;-73
2022/12/31 05:26:01;;;;;;;0.70;0.60;;;14.50;99.90;;;;;;4972293;28;20504;-73
2022/12/31 05:28:27;;;;;;;0.80;0.67;;;14.40;99.90;;;;;;4983641;28;20452;-73
2022/12/31 05:30:55;;;;;;;0.80;0.70;;;14.50;99.90;;;;;;4991566;28;20463;-72
2022/12/31 05:33:23;;;;;;;0.87;0.60;;;14.40;99.90;;;;;;4991642;28;20499;-72
2022/12/31 05:35:50;;;;;;;1.00;0.80;;;14.50;99.90;;;;;;4973974;28;20550;-73
2022/12/31 05:38:17;;;;;;;0.70;0.60;;;14.40;99.90;;;;;;4972130;28;20449;-74
2022/12/31 05:40:44;;;;;;;0.90;0.70;;;14.30;99.90;;;;;;4972176;28;20486;-73
2022/12/31 05:43:10;;;;;;;1.40;0.80;;;14.30;99.90;;;;;;4971602;28;20497;-72
2022/12/31 05:45:37;;;;;;;1.00;0.70;;;14.40;99.90;;;;;;4971800;28;20450;-72
2022/12/31 05:48:04;;;;;;;1.00;0.80;;;14.40;99.90;;;;;;4971671;28;20454;-73
2022/12/31 05:50:33;;;;;;;0.77;0.67;;;14.40;99.90;;;;;;4971746;28;20454;-72
2022/12/31 05:52:59;;;;;;;2.00;0.90;;;14.20;99.90;;;;;;4970466;28;20949;-72
2022/12/31 05:55:26;;;;;;;0.87;0.80;;;14.20;99.90;;;;;;4971439;28;20659;-72
2022/12/31 05:57:53;;;;;;;0.90;0.70;;;14.20;99.90;;;;;;4971617;28;20454;-72
2022/12/31 06:00:29;;;;;;;0.70;0.60;;;14.10;99.90;;;;;;4971695;28;20454;-72
2022/12/31 06:02:56;;;;;;;0.80;0.70;;;14.00;99.90;;;;;;4971802;28;20517;-75
2022/12/31 06:05:23;;;;;;;1.97;0.80;;;13.90;99.90;;;;;;4971731;28;20458;-74
2022/12/31 06:07:52;;;;;;;0.90;0.77;;;13.90;99.90;;;;;;4971703;28;20488;-74
2022/12/31 06:10:19;;;;;;;0.80;0.80;;;13.90;99.90;;;;;;4970565;28;20482;-74
2022/12/31 06:12:46;;;;;;;0.93;0.70;;;13.90;99.90;;;;;;4970888;28;20622;-75
2022/12/31 06:15:13;;;;;;;1.40;0.80;;;13.80;99.90;;;;;;4971621;28;20537;-74
2022/12/31 06:17:40;;;;;;;1.80;1.20;;;13.70;99.90;;;;;;4971514;28;20462;-74
2022/12/31 06:20:08;;;;;;;0.80;0.60;;;13.70;99.90;;;;;;4971065;28;20458;-75
2022/12/31 06:22:35;;;;;;;0.80;0.60;;;13.70;99.90;;;;;;4971062;28;20486;-74
2022/12/31 06:25:05;;;;;;;1.00;0.80;;;13.70;99.90;;;;;;4969643;28;20548;-75
2022/12/31 06:27:32;;;;;;;0.80;0.73;;;13.60;99.90;;;;;;4970954;28;20458;-74
2022/12/31 06:29:59;;;;;;;1.27;0.90;;;13.60;99.90;;;;;;4971012;28;20960;-75
2022/12/31 06:32:25;;;;;;;1.17;0.80;;;13.60;99.90;;;;;;4971301;28;20484;-75
2022/12/31 06:34:52;;;;;;;1.03;0.80;;;13.60;99.90;;;;;;4970906;28;20505;-74
2022/12/31 06:37:19;;;;;;;2.30;0.93;;;13.50;99.90;;;;;;4970966;28;20546;-74
2022/12/31 06:39:46;;;;;;;1.07;0.87;;;13.60;99.90;;;;;;4971203;28;20660;-75
2022/12/31 06:42:14;;;;;;;1.07;0.97;;;13.60;99.90;;;;;;4969848;28;20498;-74
2022/12/31 06:44:41;;;;;;;0.87;0.70;;;13.50;99.90;;;;;;4970791;28;20485;-75
2022/12/31 06:47:09;;;;;;;0.80;0.70;;;13.60;99.90;;;;;;4970693;28;20454;-75
2022/12/31 06:49:36;;;;;;;0.90;0.80;;;13.50;99.90;;;;;;4970708;28;20460;-74
2022/12/31 06:52:03;;;;;;;1.10;0.90;;;13.70;99.90;;;;;;4970802;28;20982;-74
2022/12/31 06:54:33;;;;;;;1.00;0.90;;;13.60;99.90;;;;;;4970523;28;20804;-75
2022/12/31 06:57:00;;;;;;;0.80;0.70;;;13.70;99.90;;;;;;4969898;28;20469;-75
2022/12/31 06:59:30;;;;;;;1.10;0.80;;;13.60;99.90;;;;;;4970339;28;20465;-76
2022/12/31 07:05:13;;;;;;;1.83;0.90;;;13.60;99.90;;;;;;4970285;28;21033;-76
2022/12/31 07:07:54;;;;;;;1.00;0.77;;;13.60;99.90;;;;;;4970672;28;20560;-75
2022/12/31 07:10:32;;;;;;;0.80;0.70;;;13.50;99.90;;;;;;4970772;28;20905;-76
2022/12/31 07:13:24;;;;;;;1.27;0.90;;;13.50;99.90;;;;;;4977249;28;20505;-75
2022/12/31 07:16:14;;;;;;;0.90;0.80;;;13.60;99.90;;;;;;4978211;28;20524;-76
2022/12/31 07:18:51;;;;;;;1.20;0.80;;;13.70;99.90;;;;;;4991055;28;20464;-76
2022/12/31 07:21:25;;;;;;;0.90;0.77;;;13.60;99.90;;;;;;4990061;28;20883;-74
2022/12/31 07:23:54;;;;;;;0.90;0.77;;;13.70;99.90;;;;;;4990163;28;20568;-75
2022/12/31 07:26:34;;;;;;;0.90;0.77;;;13.60;99.90;;;;;;4989560;28;21048;-77
2022/12/31 07:29:10;;;;;;;1.10;0.80;;;13.60;99.90;;;;;;4997829;28;20464;-74
2022/12/31 07:31:55;;;;;;;0.80;0.80;;;13.50;99.90;;;;;;4976364;28;20537;-75
2022/12/31 07:34:33;;;;;;;0.90;0.80;;;13.60;99.90;;;;;;4970211;28;20468;-75
2022/12/31 07:37:08;;;;;;;0.90;0.73;;;13.70;99.90;;;;;;4969990;28;20468;-74
2022/12/31 07:39:41;;;;;;;1.03;0.80;;;13.70;99.90;;;;;;4970161;28;20489;-75
2022/12/31 07:42:15;;;;;;;1.27;0.90;;;13.70;99.90;;;;;;4969893;28;20465;-75
2022/12/31 07:44:55;;;;;;;4.33;1.37;;;13.60;99.90;;;;;;4970345;28;20473;-75
2022/12/31 07:47:32;;;;;;;1.63;1.00;;;13.50;99.90;;;;;;4969114;28;20914;-75
2022/12/31 07:50:00;;;;;;;2.43;1.40;;;13.40;99.90;;;;;;4970366;28;20440;-75
2022/12/31 07:52:28;;;;;;;1.33;1.23;;;13.30;99.90;;;;;;4969722;28;20473;-75
2022/12/31 07:54:57;;;;;;;1.20;1.10;;;13.20;99.90;;;;;;4952753;28;20867;-75
2022/12/31 07:57:39;;;;;;;2.13;1.00;;;13.10;99.90;;;;;;4969750;28;20466;-75
2022/12/31 08:00:15;;;;;;;1.10;1.00;;;13.10;99.90;;;;;;4969924;28;20462;-75
2022/12/31 08:03:03;;;;;;;2.47;1.20;;;13.20;99.90;;;;;;4969598;28;20539;-75
2022/12/31 08:05:35;;;;;;;1.20;1.10;;;13.20;99.90;;;;;;4969532;28;20860;-75
2022/12/31 08:08:21;;;;;;;1.23;0.93;;;13.20;99.90;;;;;;4969886;28;20458;-75
2022/12/31 08:11:01;;;;;;;3.40;2.27;;;13.20;99.90;;;;;;4969911;28;20478;-74
2022/12/31 08:13:30;;;;;;;1.77;1.67;;;13.10;99.90;;;;;;4970221;28;20790;-75
2022/12/31 08:15:57;;;;;;;2.43;1.20;;;13.00;99.90;;;;;;4970003;28;20682;-75
2022/12/31 08:18:36;;;;;;;1.20;1.10;;;13.10;99.90;;;;;;4983667;28;20489;-73
2022/12/31 08:21:16;;;;;;;1.47;0.80;;;13.10;99.90;;;;;;4995151;28;20473;-77
2022/12/31 08:23:52;;;;;;;1.20;0.97;;;13.20;99.90;;;;;;4996460;28;20524;-76
2022/12/31 08:26:29;;;;;;;2.10;1.23;;;13.20;99.90;;;;;;4988307;28;20533;-75
2022/12/31 08:29:22;;;;;;;1.87;1.10;;;13.20;99.90;;;;;;4966238;28;20443;-73
2022/12/31 08:31:58;;;;;;;2.23;1.20;;;13.40;99.90;;;;;;4956562;29;20710;-76
2022/12/31 08:34:32;;;;;;;2.00;1.80;;;13.30;99.90;;;;;;4968847;28;20926;-79
2022/12/31 08:37:05;;;;;;;7.30;2.50;;;13.50;99.90;;;;;;4960015;28;20466;-76
2022/12/31 08:39:48;;;;;;;2.13;1.30;;;13.60;99.90;;;;;;4978494;28;20505;-76
2022/12/31 08:42:24;;;;;;;1.10;1.00;;;13.70;99.90;;;;;;4981303;28;20464;-77
2022/12/31 08:45:00;;;;;;;1.00;0.90;;;13.70;99.90;;;;;;4981467;28;20493;-77
2022/12/31 08:47:36;;;;;;;2.90;1.20;;;13.80;99.90;;;;;;4984007;28;20441;-80
2022/12/31 08:50:05;;;;;;;2.40;1.00;;;13.50;99.90;;;;;;4972476;28;20553;-78
2022/12/31 08:52:33;;;;;;;1.30;1.20;;;13.60;99.90;;;;;;4978511;28;20478;-74
2022/12/31 08:55:01;;;;;;;1.20;1.10;;;13.90;99.90;;;;;;4972940;28;20497;-73
2022/12/31 08:57:35;;;;;;;1.40;1.20;;;14.00;99.90;;;;;;4977180;28;20469;-74
2022/12/31 09:00:06;;;;;;;1.50;1.40;;;14.10;99.90;;;;;;4996933;28;20450;-74
2022/12/31 09:02:54;;;;;;;2.03;1.30;;;14.20;99.90;;;;;;4993965;28;20464;-73
2022/12/31 09:05:26;;;;;;;1.83;1.50;;;14.50;99.90;;;;;;4993274;28;20489;-74
2022/12/31 09:08:07;;;;;;;1.20;1.10;;;14.70;99.90;;;;;;4977500;28;20461;-74
2022/12/31 09:10:40;;;;;;;1.60;1.47;;;15.00;99.90;;;;;;4972631;28;20489;-74
2022/12/31 09:13:14;;;;;;;1.70;1.40;;;15.10;99.90;;;;;;4961095;28;20491;-74
2022/12/31 09:15:47;;;;;;;1.30;1.20;;;15.30;99.90;;;;;;4973621;28;20863;-74
2022/12/31 09:18:15;;;;;;;1.40;1.30;;;15.30;99.90;;;;;;4973598;28;20536;-73
2022/12/31 09:20:43;;;;;;;1.30;1.13;;;15.20;99.90;;;;;;4973920;28;20532;-73
2022/12/31 09:23:11;;;;;;;1.77;1.20;;;15.20;99.90;;;;;;4972672;28;20489;-74
2022/12/31 09:25:46;;;;;;;1.30;1.20;;;15.40;99.90;;;;;;4973433;28;20483;-74
2022/12/31 09:28:19;;;;;;;1.33;1.23;;;15.40;99.90;;;;;;4972572;28;20477;-74
2022/12/31 09:30:54;;;;;;;3.77;2.83;;;15.30;99.90;;;;;;4971311;28;20954;-74
2022/12/31 09:33:34;;;;;;;1.57;1.20;;;15.30;99.90;;;;;;4962000;28;20476;-74
2022/12/31 09:36:06;;;;;;;2.20;1.10;;;15.30;99.90;;;;;;4972327;28;20962;-73
2022/12/31 09:38:39;;;;;;;1.27;0.90;;;15.40;99.90;;;;;;4971237;28;20462;-74
2022/12/31 09:41:13;;;;;;;4.57;1.03;;;15.40;99.90;;;;;;4974207;28;20456;-77
2022/12/31 09:44:26;;;;;;;1.60;1.07;;;15.40;99.90;;;;;;4959886;28;20841;-75
2022/12/31 09:47:21;;;;;;;3.33;1.20;;;15.40;99.90;;;;;;4952729;29;20451;-75
2022/12/31 09:50:20;;;;;;;1.13;1.03;;;15.40;99.90;;;;;;4952521;29;20462;-74
2022/12/31 09:53:25;;;;;;;1.20;1.10;;;15.40;99.90;;;;;;4952741;29;20463;-75
2022/12/31 09:55:56;;;;;;;3.03;1.07;;;15.40;99.90;;;;;;4971227;28;20663;-75
2022/12/31 09:58:35;;;;;;;1.33;0.97;;;15.40;99.90;;;;;;4971808;28;20446;-76
2022/12/31 10:01:13;;;;;;;2.00;1.30;;;15.50;99.90;;;;;;4971974;28;20454;-75
2022/12/31 10:04:02;;;;;;;1.10;1.00;;;15.50;99.90;;;;;;4971922;28;20821;-76
2022/12/31 10:06:36;;;;;;;1.00;0.90;;;15.70;99.90;;;;;;4971509;28;20987;-76
2022/12/31 10:09:21;;;;;;;2.80;1.30;;;16.00;99.90;;;;;;4970377;28;20485;-76
2022/12/31 10:12:04;;;;;;;4.33;1.40;;;16.20;99.90;;;;;;4971997;28;20442;-76
2022/12/31 10:14:45;;;;;;;1.00;0.90;;;16.50;99.90;;;;;;4971344;28;20540;-76
2022/12/31 10:17:28;;;;;;;1.10;1.00;;;16.50;99.90;;;;;;4971451;28;20467;-75
2022/12/31 10:20:14;;;;;;;1.00;0.90;;;16.70;99.90;;;;;;4972780;28;20541;-74
2022/12/31 10:23:30;;;;;;;1.27;0.90;;;16.90;99.90;;;;;;4963401;28;20490;-76
2022/12/31 10:26:15;;;;;;;1.20;1.10;;;17.40;99.90;;;;;;4873641;29;20520;-75
2022/12/31 10:29:01;;;;;;;1.00;0.87;;;17.70;99.90;;;;;;4961891;28;20961;-76
2022/12/31 10:31:39;;;;;;;1.43;1.20;;;17.80;99.90;;;;;;4971089;28;21032;-75
2022/12/31 10:34:14;;;;;;;2.20;0.97;;;17.80;99.90;;;;;;4971373;28;20502;-75
2022/12/31 10:36:55;;;;;;;1.30;1.20;;;17.70;99.90;;;;;;4971132;28;20524;-75
2022/12/31 10:39:43;;;;;;;1.57;1.20;;;17.70;99.90;;;;;;4971144;28;20476;-75
2022/12/31 10:42:51;;;;;;;12.40;6.47;;;17.60;99.90;;;;;;4970976;28;20712;-76
2022/12/31 10:46:05;;;;;;;4.90;1.67;;;17.60;99.90;;;;;;4969984;28;20498;-75
2022/12/31 10:49:12;;;;;;;2.00;1.33;;;17.50;99.90;;;;;;4970716;28;20787;-75
2022/12/31 10:52:16;;;;;;;1.60;1.20;;;17.50;99.90;;;;;;4951187;28;20457;-75
2022/12/31 10:55:09;;;;;;;2.37;1.30;;;17.50;99.90;;;;;;4970846;28;20992;-75
2022/12/31 10:57:58;;;;;;;1.13;1.00;;;17.30;99.90;;;;;;4971003;28;20457;-75
2022/12/31 11:00:29;;;;;;;1.43;1.10;;;17.20;99.90;;;;;;4969906;28;20568;-75
2022/12/31 11:03:47;;;;;;;2.17;1.27;;;17.30;99.90;;;;;;4969545;28;20545;-75
2022/12/31 11:07:05;;;;;;;2.00;1.10;;;17.30;99.90;;;;;;4900959;29;20941;-75
2022/12/31 11:10:21;;;;;;;2.40;0.90;;;17.30;99.90;;;;;;4968415;28;20493;-75
2022/12/31 11:13:27;;;;;;;4.30;1.40;;;17.20;99.90;;;;;;4967826;28;20970;-74
2022/12/31 11:16:19;;;;;;;2.53;1.40;;;17.40;99.90;;;;;;4953718;28;20450;-75
2022/12/31 11:18:57;;;;;;;2.80;1.40;;;17.40;99.90;;;;;;4964620;28;20982;-75
2022/12/31 11:21:40;;;;;;;1.77;1.30;;;17.40;99.90;;;;;;4967224;28;21048;-75
2022/12/31 11:24:24;;;;;;;1.97;1.20;;;17.50;99.90;;;;;;4967875;28;21045;-73
2022/12/31 11:27:09;;;;;;;4.80;1.90;;;17.50;99.90;;;;;;4964677;28;21014;-79
2022/12/31 11:29:48;;;;;;;16.83;10.20;;;17.60;99.90;;;;;;4959872;28;20454;-72
2022/12/31 11:32:31;;;;;;;7.03;4.97;;;17.70;99.90;;;;;;4970565;28;20790;-76
2022/12/31 11:35:18;;;;;;;4.20;2.07;;;17.80;99.90;;;;;;4967175;28;20471;-77
2022/12/31 11:37:47;;;;;;;4.83;3.23;;;17.90;99.90;;;;;;4969427;28;20446;-77
2022/12/31 11:40:41;;;;;;;2.73;2.30;;;18.00;99.90;;;;;;4969532;28;20959;-75
2022/12/31 11:46:55;;;;;;;2.40;1.83;;;18.20;99.90;;;;;;4974398;28;20527;-79
2022/12/31 11:49:40;;;;;;;2.63;1.83;;;18.50;99.90;;;;;;4970882;28;20454;-79
2022/12/31 11:52:42;;;;;;;3.03;2.60;;;18.60;99.90;;;;;;4967138;28;20469;-78
2022/12/31 11:55:22;;;;;;;2.00;1.50;;;18.90;99.90;;;;;;4933605;28;20945;-77
2022/12/31 11:57:51;;;;;;;5.50;2.43;;;19.40;99.90;;;;;;4975840;28;20517;-78
2022/12/31 12:00:27;;;;;;;1.93;1.63;;;19.80;99.90;;;;;;4970633;28;20464;-77
2022/12/31 12:02:59;;;;;;;2.33;1.90;;;20.00;99.90;;;;;;4967583;28;20442;-78
2022/12/31 12:05:34;;;;;;;2.87;2.67;;;20.20;99.90;;;;;;4965756;28;20492;-76
2022/12/31 12:08:02;;;;;;;7.40;2.00;;;20.30;99.90;;;;;;4971236;28;20492;-77
2022/12/31 12:10:30;;;;;;;6.00;2.90;;;20.30;99.90;;;;;;4976570;28;20462;-76
2022/12/31 12:12:58;;;;;;;3.37;2.93;;;20.40;99.90;;;;;;4977425;28;20458;-77
2022/12/31 12:15:29;;;;;;;6.90;4.20;;;20.70;99.90;;;;;;4978249;28;20538;-77
2022/12/31 12:18:01;;;;;;;5.77;3.47;;;21.10;99.90;;;;;;4973978;28;20841;-77
2022/12/31 12:20:32;;;;;;;2.30;1.90;;;21.70;99.90;;;;;;4967906;28;20456;-76
2022/12/31 12:23:01;;;;;;;1.40;1.27;;;22.10;99.90;;;;;;4966752;28;20489;-76
2022/12/31 12:25:37;;;;;;;1.80;1.70;;;22.40;99.90;;;;;;4965776;28;20494;-75
2022/12/31 12:28:17;;;;;;;5.63;2.83;;;21.40;99.90;;;;;;4965771;28;20446;-76
2022/12/31 12:30:45;;;;;;;3.20;2.33;;;21.70;99.90;;;;;;4966222;28;20938;-76
2022/12/31 12:33:17;;;;;;;4.10;1.67;;;22.20;99.90;;;;;;4966887;28;20482;-76
2022/12/31 12:35:44;;;;;;;3.17;1.60;;;22.30;99.90;;;;;;4967375;28;20855;-75
2022/12/31 12:38:15;;;;;;;4.50;2.27;;;21.50;99.90;;;;;;4965675;28;20464;-76
2022/12/31 12:40:53;;;;;;;1.73;1.60;;;21.50;99.90;;;;;;4967007;28;20458;-76
2022/12/31 12:43:25;;;;;;;1.40;1.30;;;21.50;99.90;;;;;;4966208;28;20549;-76
2022/12/31 12:46:03;;;;;;;1.77;1.10;;;21.20;99.90;;;;;;4967438;28;20575;-76
2022/12/31 12:48:37;;;;;;;1.10;1.00;;;21.10;99.90;;;;;;4966847;28;20461;-76
2022/12/31 12:51:15;;;;;;;1.40;1.30;;;21.20;99.90;;;;;;4967799;28;20536;-76
2022/12/31 12:53:49;;;;;;;1.07;0.97;;;21.40;99.90;;;;;;4964895;28;20541;-76
2022/12/31 12:56:29;;;;;;;2.47;1.03;;;21.70;99.90;;;;;;4966367;28;20535;-76
2022/12/31 12:59:12;;;;;;;1.60;1.50;;;21.70;99.90;;;;;;4964761;28;20460;-76
2022/12/31 13:01:47;;;;;;;1.90;1.20;;;21.90;99.90;;;;;;4966114;28;20529;-76
2022/12/31 13:04:35;;;;;;;2.63;1.50;;;21.60;99.90;;;;;;4965047;28;20968;-75
2022/12/31 13:07:26;;;;;;;7.30;2.83;;;22.20;99.90;;;;;;4965336;28;20997;-75
2022/12/31 13:10:17;;;;;;;2.37;2.17;;;22.40;99.90;;;;;;4967168;28;20466;-76
2022/12/31 13:12:51;;;;;;;2.40;1.97;;;21.80;99.90;;;;;;4965928;28;20478;-75
2022/12/31 13:15:24;;;;;;;2.00;1.70;;;21.40;99.90;;;;;;4967088;28;20516;-74
2022/12/31 13:18:00;;;;;;;2.20;2.00;;;20.90;99.90;;;;;;4968401;28;20500;-75
2022/12/31 13:20:34;;;;;;;2.30;2.10;;;20.90;99.90;;;;;;4966245;28;20486;-75
2022/12/31 13:23:19;;;;;;;1.97;1.77;;;21.20;99.90;;;;;;4966552;28;20481;-85
2022/12/31 13:26:02;;;;;;;4.40;2.47;;;21.10;99.90;;;;;;4966572;28;21065;-75
2022/12/31 13:28:41;;;;;;;3.20;1.97;;;20.80;99.90;;;;;;4968627;28;20473;-74
2022/12/31 13:31:14;;;;;;;11.33;2.20;;;20.80;99.90;;;;;;4969366;28;20462;-76
2022/12/31 13:33:49;;;;;;;2.27;1.60;;;20.90;99.90;;;;;;4969786;28;20663;-84
2022/12/31 13:36:23;;;;;;;3.40;2.13;;;20.50;99.90;;;;;;4954877;28;20457;-79
2022/12/31 13:38:52;;;;;;;3.10;1.97;;;19.10;99.90;;;;;;4980264;28;20520;-80
2022/12/31 13:41:25;;;;;;;4.00;2.60;;;19.30;99.90;;;;;;4977363;28;20460;-79
2022/12/31 13:44:04;;;;;;;4.60;1.80;;;19.20;99.90;;;;;;4973478;28;20450;-80
2022/12/31 13:46:39;;;;;;;3.03;1.90;;;19.50;99.90;;;;;;4975579;28;20584;-79